Time;durP1;ratioP1;P1;durP2;ratioP2;P2;SDS_P1;SDS_P2;PMS_P1;PMS_P2;Temp;Humidity;BMP_temperature;BMP_pressure;BME280_temperature;BME280_humidity;BME280_pressure;Samples;Min_cycle;Max_cycle;Signal;HPM_P1;HPM_P2
2022/04/22 00:00:20;;;;;;;16.55;6.80;;;10.80;99.90;;;;;;5047568;28;20045;-78
2022/04/22 00:02:46;;;;;;;12.93;6.05;;;10.80;99.90;;;;;;5049974;28;20207;-77
2022/04/22 00:05:11;;;;;;;14.57;6.82;;;10.80;99.90;;;;;;5044789;28;20087;-78
2022/04/22 00:07:37;;;;;;;13.57;7.22;;;10.70;99.90;;;;;;5040882;28;20049;-78
2022/04/22 00:10:05;;;;;;;13.88;7.07;;;10.70;99.90;;;;;;5038992;28;20099;-77
2022/04/22 00:12:31;;;;;;;12.57;6.85;;;10.70;99.90;;;;;;5046766;28;20095;-77
2022/04/22 00:14:56;;;;;;;12.90;6.68;;;10.60;99.90;;;;;;5045706;28;20037;-78
2022/04/22 00:17:22;;;;;;;13.73;7.72;;;10.60;99.90;;;;;;5048262;28;20511;-78
2022/04/22 00:19:48;;;;;;;16.88;7.30;;;10.60;99.90;;;;;;5042627;28;20050;-78
2022/04/22 00:22:13;;;;;;;12.95;7.40;;;10.60;99.90;;;;;;5032858;28;20456;-78
2022/04/22 00:24:39;;;;;;;13.50;7.13;;;10.50;99.90;;;;;;5042868;28;20507;-77
2022/04/22 00:27:05;;;;;;;16.20;6.88;;;10.50;99.90;;;;;;5043805;28;20052;-77
2022/04/22 00:29:30;;;;;;;14.20;7.25;;;10.50;99.90;;;;;;5042470;28;20049;-78
2022/04/22 00:31:56;;;;;;;19.10;7.78;;;10.50;99.90;;;;;;5045742;28;20045;-77
2022/04/22 00:34:22;;;;;;;13.07;7.05;;;10.40;99.90;;;;;;5046830;28;20052;-77
2022/04/22 00:36:47;;;;;;;14.63;6.93;;;10.40;99.90;;;;;;5044288;28;20041;-78
2022/04/22 00:39:13;;;;;;;13.52;6.70;;;10.40;99.90;;;;;;5050212;28;20060;-78
2022/04/22 00:41:38;;;;;;;13.20;7.18;;;10.40;99.90;;;;;;5047287;28;20045;-76
2022/04/22 00:44:04;;;;;;;13.65;7.20;;;10.40;99.90;;;;;;5046607;28;20124;-78
2022/04/22 00:46:30;;;;;;;14.13;6.55;;;10.30;99.90;;;;;;5046344;28;20068;-78
2022/04/22 00:48:56;;;;;;;11.68;6.45;;;10.30;99.90;;;;;;5038083;28;20045;-77
2022/04/22 00:51:22;;;;;;;14.80;7.07;;;10.20;99.90;;;;;;5036623;28;20045;-77
2022/04/22 00:53:49;;;;;;;15.38;7.97;;;10.20;99.90;;;;;;5047611;28;20045;-77
2022/04/22 00:56:15;;;;;;;14.93;7.28;;;10.20;99.90;;;;;;5043694;28;20036;-77
2022/04/22 00:58:44;;;;;;;13.95;7.55;;;10.20;99.90;;;;;;5045840;28;20041;-78
2022/04/22 01:01:11;;;;;;;13.63;6.88;;;10.10;99.90;;;;;;5042912;28;20507;-77
2022/04/22 01:03:37;;;;;;;15.50;7.38;;;10.10;99.90;;;;;;5046241;28;20060;-77
2022/04/22 01:11:35;;;;;;;15.95;7.40;;;10.00;99.90;;;;;;5047712;28;20050;-77
2022/04/22 01:14:07;;;;;;;15.68;7.88;;;10.00;99.90;;;;;;5041313;28;20449;-77
2022/04/22 01:16:34;;;;;;;10.55;7.40;;;10.00;99.90;;;;;;5045292;28;20052;-77
2022/04/22 01:19:00;;;;;;;13.77;7.90;;;10.00;99.90;;;;;;5043969;28;20045;-76
2022/04/22 01:21:25;;;;;;;17.45;7.63;;;9.90;99.90;;;;;;5037371;28;20037;-77
2022/04/22 01:23:51;;;;;;;13.93;7.40;;;9.90;99.90;;;;;;5036345;28;20456;-77
2022/04/22 01:26:16;;;;;;;15.65;7.53;;;9.90;99.90;;;;;;5037590;28;20203;-76
2022/04/22 01:28:43;;;;;;;15.35;7.63;;;9.80;99.90;;;;;;5040400;28;20029;-76
2022/04/22 01:31:09;;;;;;;13.75;7.43;;;9.80;99.90;;;;;;5049725;28;20044;-76
2022/04/22 01:33:35;;;;;;;11.68;6.90;;;9.80;99.90;;;;;;5043471;28;20094;-76
2022/04/22 01:36:01;;;;;;;14.15;7.65;;;9.70;99.90;;;;;;5040871;28;20076;-76
2022/04/22 01:38:26;;;;;;;14.35;7.03;;;9.70;99.90;;;;;;5037268;28;20077;-75
2022/04/22 01:40:52;;;;;;;13.15;7.90;;;9.70;99.90;;;;;;5041475;28;20037;-76
2022/04/22 01:43:18;;;;;;;12.93;7.15;;;9.90;99.90;;;;;;5035558;28;20107;-76
2022/04/22 01:45:44;;;;;;;14.95;7.32;;;9.60;99.90;;;;;;5045609;28;20041;-76
2022/04/22 01:48:09;;;;;;;14.05;7.07;;;9.60;99.90;;;;;;5041638;28;20048;-76
2022/04/22 01:50:35;;;;;;;16.10;7.45;;;9.50;99.90;;;;;;5046456;28;20064;-76
2022/04/22 01:53:01;;;;;;;11.75;7.05;;;9.50;99.90;;;;;;5038055;28;20064;-76
2022/04/22 01:55:27;;;;;;;16.67;7.75;;;9.40;99.90;;;;;;5045692;28;20069;-75
2022/04/22 01:57:54;;;;;;;11.95;7.05;;;9.40;99.90;;;;;;5046767;28;20120;-76
2022/04/22 02:00:20;;;;;;;18.48;7.65;;;9.40;99.90;;;;;;5044359;28;20103;-76
2022/04/22 02:02:46;;;;;;;16.33;7.25;;;9.30;99.90;;;;;;5038715;28;20775;-76
2022/04/22 02:05:11;;;;;;;12.20;6.93;;;9.30;99.90;;;;;;5048531;28;20040;-75
2022/04/22 02:07:38;;;;;;;16.90;6.85;;;9.30;99.90;;;;;;5044549;28;20140;-76
2022/04/22 02:10:06;;;;;;;13.07;7.15;;;9.20;99.90;;;;;;5038863;28;20037;-76
2022/04/22 02:12:31;;;;;;;12.68;6.55;;;9.20;99.90;;;;;;5039255;28;20057;-75
2022/04/22 02:14:57;;;;;;;14.05;6.82;;;9.20;99.90;;;;;;5033892;28;20088;-76
2022/04/22 02:17:23;;;;;;;13.23;6.38;;;9.20;99.90;;;;;;5044101;28;20047;-76
2022/04/22 02:19:48;;;;;;;12.82;6.22;;;9.20;99.90;;;;;;5043085;28;20048;-76
2022/04/22 02:22:14;;;;;;;14.98;6.60;;;9.20;99.90;;;;;;5036496;28;20048;-75
2022/04/22 02:24:40;;;;;;;11.55;6.18;;;9.10;99.90;;;;;;5035801;28;20057;-75
2022/04/22 02:29:50;;;;;;;12.40;5.82;;;9.10;99.90;;;;;;5040516;28;20425;-76
2022/04/22 02:32:16;;;;;;;12.90;6.15;;;9.00;99.90;;;;;;5050272;28;20045;-75
2022/04/22 02:34:43;;;;;;;17.25;6.25;;;9.00;99.90;;;;;;5049639;28;20389;-75
2022/04/22 02:37:09;;;;;;;12.45;5.70;;;9.00;99.90;;;;;;5042938;28;20405;-75
2022/04/22 02:39:34;;;;;;;11.25;5.57;;;9.00;99.90;;;;;;5046963;28;20041;-75
2022/04/22 02:47:28;;;;;;;12.32;5.55;;;8.90;99.90;;;;;;5046125;28;20124;-75
2022/04/22 02:49:54;;;;;;;9.77;4.80;;;8.80;99.90;;;;;;5050192;28;20460;-75
2022/04/22 02:52:19;;;;;;;7.53;4.47;;;8.80;99.90;;;;;;5048143;28;20105;-74
2022/04/22 02:54:45;;;;;;;12.98;5.30;;;8.80;99.90;;;;;;5043487;28;20475;-75
2022/04/22 02:57:11;;;;;;;9.25;5.38;;;8.80;99.90;;;;;;5042445;28;20056;-75
2022/04/22 02:59:39;;;;;;;10.07;5.40;;;8.80;99.90;;;;;;5042843;28;20049;-75
2022/04/22 03:02:06;;;;;;;11.43;5.50;;;8.70;99.90;;;;;;5041322;28;20047;-75
2022/04/22 03:04:31;;;;;;;11.75;5.38;;;8.70;99.90;;;;;;5050001;28;20142;-75
2022/04/22 03:06:57;;;;;;;9.35;4.70;;;8.70;99.90;;;;;;5043553;28;20467;-75
2022/04/22 03:09:23;;;;;;;11.23;5.05;;;8.70;99.90;;;;;;5047018;28;20045;-75
2022/04/22 03:11:49;;;;;;;10.82;4.90;;;8.60;99.90;;;;;;5038183;28;20041;-75
2022/04/22 03:14:15;;;;;;;12.38;5.22;;;8.60;99.90;;;;;;5043761;28;20412;-75
2022/04/22 03:16:42;;;;;;;12.15;5.82;;;8.70;99.90;;;;;;5053746;28;20045;-74
2022/04/22 03:19:08;;;;;;;10.68;4.93;;;8.60;99.90;;;;;;5043344;28;20055;-75
2022/04/22 03:21:34;;;;;;;9.95;5.25;;;8.50;99.90;;;;;;5040732;28;20128;-75
2022/04/22 03:24:00;;;;;;;11.48;5.20;;;8.50;99.90;;;;;;5036245;28;20103;-75
2022/04/22 03:26:26;;;;;;;13.60;5.18;;;8.50;99.90;;;;;;5040343;28;20538;-75
2022/04/22 03:28:57;;;;;;;12.60;5.38;;;8.50;99.90;;;;;;5040416;28;20033;-75
2022/04/22 03:31:23;;;;;;;8.85;4.80;;;8.40;99.90;;;;;;5051190;28;20115;-75
2022/04/22 03:33:48;;;;;;;10.65;5.63;;;8.40;99.90;;;;;;5048439;28;20371;-74
2022/04/22 03:36:14;;;;;;;12.25;5.18;;;8.40;99.90;;;;;;5042948;28;20055;-75
2022/04/22 03:38:40;;;;;;;10.38;5.00;;;8.40;99.90;;;;;;5047261;28;20041;-75
2022/04/22 03:41:06;;;;;;;10.75;5.55;;;8.30;99.90;;;;;;5044315;28;20527;-75
2022/04/22 03:43:31;;;;;;;10.32;5.10;;;8.30;99.90;;;;;;5059349;28;20053;-75
2022/04/22 03:45:58;;;;;;;11.90;5.35;;;8.30;99.90;;;;;;5050238;28;20033;-75
2022/04/22 03:48:24;;;;;;;11.18;5.32;;;8.30;99.90;;;;;;5048539;28;20056;-75
2022/04/22 03:50:49;;;;;;;10.77;5.20;;;8.20;99.90;;;;;;5043588;28;20045;-75
2022/04/22 03:53:15;;;;;;;9.75;5.30;;;8.20;99.90;;;;;;5049305;28;20041;-75
2022/04/22 03:55:42;;;;;;;9.18;4.88;;;8.20;99.90;;;;;;5042777;28;20049;-75
2022/04/22 03:58:12;;;;;;;9.10;4.70;;;8.20;99.90;;;;;;5040614;28;20072;-75
2022/04/22 04:00:40;;;;;;;10.80;5.32;;;8.10;99.90;;;;;;5036821;28;20126;-74
2022/04/22 04:03:26;;;;;;;8.77;4.78;;;8.10;99.90;;;;;;5048399;28;20044;-75
2022/04/22 04:05:52;;;;;;;7.88;4.70;;;8.10;99.90;;;;;;5045746;28;20040;-75
2022/04/22 04:08:20;;;;;;;10.10;5.30;;;8.10;99.90;;;;;;5043128;28;20049;-75
2022/04/22 04:16:16;;;;;;;8.65;4.88;;;8.00;99.90;;;;;;5038888;28;20064;-75
2022/04/22 04:18:42;;;;;;;13.45;5.30;;;8.00;99.90;;;;;;5043060;28;20049;-75
2022/04/22 04:23:56;;;;;;;9.35;5.07;;;7.90;99.90;;;;;;5036731;28;20049;-75
2022/04/22 04:26:24;;;;;;;8.57;4.80;;;7.90;99.90;;;;;;5045381;28;20041;-75
2022/04/22 04:28:50;;;;;;;9.57;5.18;;;7.90;99.90;;;;;;5046514;28;20076;-75
2022/04/22 04:31:17;;;;;;;10.20;4.68;;;7.90;99.90;;;;;;5039996;28;20043;-75
2022/04/22 04:33:43;;;;;;;9.95;5.22;;;7.90;99.90;;;;;;5033563;28;20045;-75
2022/04/22 04:36:10;;;;;;;9.73;4.80;;;7.90;99.90;;;;;;5038035;28;20099;-75
2022/04/22 04:38:40;;;;;;;9.93;4.60;;;7.80;99.90;;;;;;5035646;28;20049;-75
2022/04/22 04:41:07;;;;;;;10.20;4.70;;;7.80;99.90;;;;;;5043717;28;20037;-75
2022/04/22 04:43:34;;;;;;;9.35;4.72;;;7.80;99.90;;;;;;5047620;28;20508;-75
2022/04/22 04:46:00;;;;;;;11.45;4.53;;;7.80;99.90;;;;;;5041801;28;20040;-75
2022/04/22 04:48:25;;;;;;;10.60;4.45;;;7.80;99.90;;;;;;5043795;28;20393;-74
2022/04/22 04:50:51;;;;;;;8.23;4.25;;;7.80;99.90;;;;;;5044488;28;20397;-74
2022/04/22 04:53:19;;;;;;;7.90;4.78;;;7.80;99.90;;;;;;5042730;28;20132;-75
2022/04/22 04:55:46;;;;;;;8.90;4.57;;;7.70;99.90;;;;;;5042388;28;20280;-75
2022/04/22 04:58:11;;;;;;;8.23;5.10;;;7.70;99.90;;;;;;5047750;28;20134;-75
2022/04/22 05:00:37;;;;;;;9.75;5.00;;;7.70;99.90;;;;;;5031397;28;20445;-75
2022/04/22 05:03:03;;;;;;;11.23;4.55;;;7.70;99.90;;;;;;5033199;28;20064;-75
2022/04/22 05:05:29;;;;;;;8.82;4.60;;;7.70;99.90;;;;;;5039227;28;20039;-75
2022/04/22 05:07:57;;;;;;;11.65;5.32;;;7.70;99.90;;;;;;5049660;28;20049;-74
2022/04/22 05:10:28;;;;;;;8.70;4.88;;;7.70;99.90;;;;;;5045732;28;20059;-74
2022/04/22 05:12:54;;;;;;;9.05;5.15;;;7.70;99.90;;;;;;5041511;28;20132;-75
2022/04/22 05:15:24;;;;;;;10.10;4.70;;;7.70;99.90;;;;;;5047086;28;20041;-75
2022/04/22 05:17:50;;;;;;;8.10;4.75;;;7.70;99.90;;;;;;5047293;28;20057;-75
2022/04/22 05:20:21;;;;;;;10.48;4.78;;;7.70;99.90;;;;;;5035766;28;20527;-75
2022/04/22 05:22:47;;;;;;;10.15;4.70;;;7.70;99.90;;;;;;5046456;28;20040;-75
2022/04/22 05:25:15;;;;;;;9.43;4.95;;;7.70;99.90;;;;;;5049083;28;20103;-76
2022/04/22 05:27:41;;;;;;;14.10;5.38;;;7.70;99.90;;;;;;5047908;28;20059;-74
2022/04/22 05:32:53;;;;;;;8.57;5.30;;;7.80;99.90;;;;;;5044557;28;20049;-75
2022/04/22 05:35:21;;;;;;;10.27;5.40;;;7.80;99.90;;;;;;5045671;28;20047;-75
2022/04/22 05:37:51;;;;;;;8.30;4.93;;;7.80;99.90;;;;;;5054021;28;20099;-75
2022/04/22 05:40:26;;;;;;;11.40;4.80;;;7.80;99.90;;;;;;5055780;28;20052;-76
2022/04/22 05:42:52;;;;;;;;;;;7.90;99.90;;;;;;5051285;28;20057;-75
2022/04/22 05:45:19;;;;;;;11.80;4.53;;;7.90;99.90;;;;;;5050409;28;19921;-75
2022/04/22 05:47:46;;;;;;;9.30;4.57;;;7.90;99.90;;;;;;5052280;28;20033;-74
2022/04/22 05:50:14;;;;;;;10.27;4.75;;;7.90;99.90;;;;;;5046929;28;20037;-75
2022/04/22 05:52:40;;;;;;;8.70;4.68;;;7.90;99.90;;;;;;5054959;28;20040;-74
2022/04/22 05:55:09;;;;;;;8.65;4.05;;;7.90;99.90;;;;;;5057517;28;20107;-75
2022/04/22 05:57:35;;;;;;;9.00;3.80;;;8.00;99.90;;;;;;5054241;28;20084;-74
2022/04/22 06:00:04;;;;;;;10.63;4.00;;;8.00;99.90;;;;;;5046846;28;20132;-75
2022/04/22 06:02:30;;;;;;;10.88;4.18;;;8.00;99.90;;;;;;5051244;28;20083;-76
2022/04/22 06:04:57;;;;;;;7.68;4.05;;;8.10;99.90;;;;;;5055713;28;20049;-75
2022/04/22 06:07:23;;;;;;;8.40;3.78;;;8.10;99.90;;;;;;5042117;28;20050;-76
2022/04/22 06:12:32;;;;;;;10.68;3.78;;;8.20;99.90;;;;;;5045991;28;20068;-74
2022/04/22 06:15:02;;;;;;;7.43;3.70;;;8.20;99.90;;;;;;5038682;28;20061;-72
2022/04/22 06:17:29;;;;;;;9.35;3.65;;;8.20;99.90;;;;;;5039187;28;20045;-75
2022/04/22 06:19:55;;;;;;;8.35;3.75;;;8.30;99.90;;;;;;5036250;28;20047;-75
2022/04/22 06:22:20;;;;;;;7.95;3.88;;;8.30;99.90;;;;;;5046236;28;20124;-74
2022/04/22 06:24:46;;;;;;;8.45;3.80;;;8.30;99.90;;;;;;5040927;28;20053;-75
2022/04/22 06:27:12;;;;;;;8.98;3.45;;;8.40;99.90;;;;;;5044989;28;20148;-75
2022/04/22 06:29:38;;;;;;;6.43;3.25;;;8.40;99.90;;;;;;5050220;28;20381;-75
2022/04/22 06:32:04;;;;;;;6.80;3.35;;;8.50;99.90;;;;;;5062021;28;20066;-75
2022/04/22 06:34:30;;;;;;;7.65;3.17;;;8.60;99.90;;;;;;5057587;28;20521;-75
2022/04/22 06:36:56;;;;;;;6.57;3.28;;;8.70;99.90;;;;;;5048277;28;20083;-76
2022/04/22 06:39:22;;;;;;;9.32;3.55;;;8.80;99.90;;;;;;5043271;28;20404;-75
2022/04/22 06:47:33;;;;;;;6.63;3.17;;;9.00;99.90;;;;;;5044299;28;20066;-75
2022/04/22 06:49:59;;;;;;;8.63;3.22;;;9.10;99.90;;;;;;5034925;28;20493;-75
2022/04/22 06:52:25;;;;;;;7.25;3.28;;;9.10;99.90;;;;;;5038548;28;20053;-76
2022/04/22 06:54:51;;;;;;;6.57;2.83;;;9.20;99.90;;;;;;5042783;28;20425;-76
2022/04/22 06:57:19;;;;;;;7.47;2.90;;;9.30;99.90;;;;;;5050171;28;20033;-76
2022/04/22 06:59:45;;;;;;;6.88;2.80;;;9.30;99.90;;;;;;5034823;28;20049;-76
2022/04/22 07:02:11;;;;;;;7.95;2.60;;;9.40;99.90;;;;;;5046266;28;20049;-77
2022/04/22 07:04:36;;;;;;;9.57;2.75;;;9.50;99.90;;;;;;5049833;28;20055;-76
2022/04/22 07:07:03;;;;;;;12.52;2.78;;;9.50;99.90;;;;;;5049033;28;20049;-76
2022/04/22 07:09:29;;;;;;;18.85;3.10;;;9.50;99.90;;;;;;5050099;28;20053;-77
2022/04/22 07:11:57;;;;;;;6.15;2.97;;;9.60;99.90;;;;;;5049667;28;20568;-77
2022/04/22 07:14:24;;;;;;;5.97;2.65;;;9.60;99.90;;;;;;5049251;28;20044;-76
2022/04/22 07:16:51;;;;;;;8.13;2.92;;;9.70;99.90;;;;;;5049277;28;20377;-76
2022/04/22 07:19:17;;;;;;;12.00;3.28;;;9.70;99.90;;;;;;5048936;28;20060;-77
2022/04/22 07:21:43;;;;;;;12.45;2.85;;;9.70;99.90;;;;;;5051093;28;20033;-76
2022/04/22 07:24:09;;;;;;;5.80;2.30;;;9.80;99.90;;;;;;5047537;28;20119;-77
2022/04/22 07:26:37;;;;;;;5.65;2.67;;;9.80;99.90;;;;;;5053019;28;20079;-77
2022/04/22 07:29:06;;;;;;;6.05;2.40;;;9.90;99.90;;;;;;5053581;28;20049;-77
2022/04/22 07:31:32;;;;;;;7.00;2.78;;;10.00;99.90;;;;;;5055323;28;20044;-77
2022/04/22 07:33:58;;;;;;;5.45;2.72;;;10.00;99.90;;;;;;5046952;28;20041;-77
2022/04/22 07:36:24;;;;;;;9.75;3.03;;;10.00;99.90;;;;;;5053211;28;20075;-77
2022/04/22 07:38:49;;;;;;;8.18;2.47;;;10.10;99.90;;;;;;5055266;28;20471;-78
2022/04/22 07:41:18;;;;;;;8.05;2.70;;;10.10;99.90;;;;;;5047649;28;20507;-78
2022/04/22 07:46:47;;;;;;;8.43;2.95;;;10.10;99.90;;;;;;5039974;28;20057;-77
2022/04/22 07:49:13;;;;;;;11.90;3.28;;;10.20;99.90;;;;;;5043316;28;20092;-78
2022/04/22 07:51:42;;;;;;;8.75;3.00;;;10.20;99.90;;;;;;5044409;28;20041;-78
2022/04/22 07:54:08;;;;;;;8.80;3.25;;;10.30;99.90;;;;;;5039176;28;20025;-81
2022/04/22 07:56:34;;;;;;;5.18;2.92;;;10.30;99.90;;;;;;5038581;28;20405;-77
2022/04/22 07:58:59;;;;;;;9.82;2.67;;;10.40;99.90;;;;;;5046001;28;20143;-77
2022/04/22 08:01:26;;;;;;;12.60;2.70;;;10.40;99.90;;;;;;5047372;28;20049;-77
2022/04/22 08:03:53;;;;;;;6.55;2.95;;;10.50;99.90;;;;;;5045173;28;20041;-77
2022/04/22 08:06:19;;;;;;;9.02;3.35;;;10.60;99.90;;;;;;5043360;28;20029;-76
2022/04/22 08:08:46;;;;;;;5.75;2.80;;;10.80;99.90;;;;;;5041046;28;20418;-77
2022/04/22 08:11:11;;;;;;;7.05;3.33;;;10.80;99.90;;;;;;5042091;28;20397;-78
2022/04/22 08:13:37;;;;;;;5.65;2.80;;;10.90;99.90;;;;;;5045523;28;20505;-77
2022/04/22 08:16:03;;;;;;;10.90;3.20;;;11.00;99.90;;;;;;5046033;28;20436;-77
2022/04/22 08:18:29;;;;;;;12.27;3.67;;;11.20;99.90;;;;;;5042869;28;20091;-78
2022/04/22 08:20:54;;;;;;;9.43;3.78;;;11.20;99.90;;;;;;5045774;28;20073;-77
2022/04/22 08:23:21;;;;;;;5.65;2.75;;;11.30;99.90;;;;;;5036903;28;20072;-78
2022/04/22 08:25:47;;;;;;;8.48;3.00;;;11.40;99.90;;;;;;5041826;28;20033;-78
2022/04/22 08:28:12;;;;;;;5.65;3.10;;;11.60;99.90;;;;;;5044376;28;20040;-78
2022/04/22 08:30:38;;;;;;;6.72;2.67;;;11.70;99.90;;;;;;5044122;28;20044;-78
2022/04/22 08:33:04;;;;;;;6.82;2.90;;;11.90;99.90;;;;;;5046002;28;20404;-78
2022/04/22 08:35:30;;;;;;;8.02;2.55;;;12.00;99.90;;;;;;5045529;28;20045;-77
2022/04/22 08:37:58;;;;;;;6.80;2.55;;;12.10;99.90;;;;;;5045831;28;20060;-79
2022/04/22 08:40:24;;;;;;;6.30;2.65;;;12.30;99.90;;;;;;5048425;28;20478;-78
2022/04/22 08:42:50;;;;;;;5.28;2.42;;;12.40;99.90;;;;;;5041129;28;20121;-80
2022/04/22 08:45:16;;;;;;;7.00;2.78;;;12.60;99.90;;;;;;5041560;28;20056;-81
2022/04/22 08:50:27;;;;;;;5.47;2.60;;;12.80;99.90;;;;;;5035345;28;20041;-79
2022/04/22 08:53:06;;;;;;;6.60;2.40;;;13.00;99.90;;;;;;5043092;28;20041;-75
2022/04/22 08:55:33;;;;;;;8.98;3.00;;;13.00;99.90;;;;;;5041938;28;20045;-78
2022/04/22 08:58:05;;;;;;;5.90;2.55;;;13.20;99.90;;;;;;5044289;28;20045;-78
2022/04/22 09:00:35;;;;;;;7.80;2.67;;;13.30;99.90;;;;;;5039823;28;20084;-77
2022/04/22 09:03:01;;;;;;;7.78;2.42;;;13.50;99.90;;;;;;5035999;28;20053;-76
2022/04/22 09:05:27;;;;;;;6.20;3.05;;;13.70;99.90;;;;;;5042229;28;20044;-80
2022/04/22 09:07:53;;;;;;;6.80;2.78;;;13.70;99.90;;;;;;5044683;28;20052;-80
2022/04/22 09:10:20;;;;;;;7.78;2.78;;;13.80;99.90;;;;;;5046965;28;20051;-78
2022/04/22 09:12:57;;;;;;;6.80;2.75;;;13.90;99.90;;;;;;5042964;28;21046;-77
2022/04/22 09:15:31;;;;;;;9.77;2.90;;;14.00;99.90;;;;;;5045772;28;20798;-77
2022/04/22 09:18:09;;;;;;;11.82;3.28;;;14.10;99.90;;;;;;5039270;28;20561;-76
2022/04/22 09:20:35;;;;;;;6.07;2.65;;;14.20;99.90;;;;;;5040906;28;21722;-77
2022/04/22 09:23:19;;;;;;;6.43;2.47;;;14.40;99.90;;;;;;5026703;28;20047;-78
2022/04/22 09:25:45;;;;;;;5.70;2.30;;;14.50;99.90;;;;;;5038453;28;20075;-78
2022/04/22 09:28:11;;;;;;;10.30;2.80;;;14.70;99.90;;;;;;5050424;28;20469;-78
2022/04/22 09:30:37;;;;;;;8.77;2.80;;;14.80;99.90;;;;;;5049761;28;20037;-78
2022/04/22 09:33:03;;;;;;;10.13;2.90;;;14.90;99.90;;;;;;5070479;28;20575;-78
2022/04/22 09:35:29;;;;;;;6.85;2.72;;;14.90;99.90;;;;;;5071101;28;20087;-78
2022/04/22 09:43:42;;;;;;;4.63;2.40;;;15.20;99.00;;;;;;5045834;28;20080;-74
2022/04/22 09:46:20;;;;;;;6.30;2.70;;;15.30;98.10;;;;;;5048095;28;20120;-74
2022/04/22 09:48:45;;;;;;;7.47;2.80;;;15.40;97.30;;;;;;5046941;28;20045;-77
2022/04/22 09:51:24;;;;;;;7.60;3.63;;;15.40;98.30;;;;;;5050546;28;20064;-77
2022/04/22 09:54:09;;;;;;;6.47;2.88;;;15.50;98.10;;;;;;5050171;28;20043;-77
2022/04/22 09:56:37;;;;;;;;;;;15.70;97.20;;;;;;5042602;28;20061;-77
2022/04/22 09:59:26;;;;;;;4.95;2.97;;;15.80;97.30;;;;;;5029584;28;19931;-77
2022/04/22 10:01:52;;;;;;;8.68;3.05;;;16.00;96.90;;;;;;5030694;28;20103;-77
2022/04/22 10:04:19;;;;;;;6.88;2.90;;;16.10;97.20;;;;;;5029395;28;20045;-77
2022/04/22 10:06:46;;;;;;;5.40;3.22;;;16.20;95.80;;;;;;5028914;28;20049;-77
2022/04/22 10:09:16;;;;;;;8.38;3.40;;;16.20;96.40;;;;;;5029046;28;20041;-77
2022/04/22 10:11:43;;;;;;;9.90;3.78;;;16.30;96.90;;;;;;5030172;28;20052;-77
2022/04/22 10:14:09;;;;;;;7.18;3.13;;;16.40;96.10;;;;;;5029772;28;20053;-77
2022/04/22 10:16:35;;;;;;;9.43;3.00;;;16.50;95.90;;;;;;5027467;28;20540;-77
2022/04/22 10:19:02;;;;;;;7.43;3.22;;;16.60;95.90;;;;;;5030535;28;20049;-77
2022/04/22 10:21:28;;;;;;;11.45;3.58;;;16.80;94.10;;;;;;5048135;28;20187;-77
2022/04/22 10:23:56;;;;;;;10.63;2.67;;;16.80;95.10;;;;;;5044618;28;20041;-77
2022/04/22 10:26:22;;;;;;;6.35;2.75;;;16.90;94.60;;;;;;5031038;28;20103;-77
2022/04/22 10:28:49;;;;;;;10.95;2.80;;;17.10;95.20;;;;;;5030813;28;20497;-77
2022/04/22 10:31:16;;;;;;;17.45;3.38;;;17.20;94.90;;;;;;5039940;28;20119;-77
2022/04/22 10:33:44;;;;;;;7.57;3.05;;;17.30;93.30;;;;;;5069459;28;20408;-77
2022/04/22 10:36:18;;;;;;;12.20;3.78;;;17.40;93.60;;;;;;5055261;28;20029;-77
2022/04/22 10:38:48;;;;;;;6.70;3.00;;;17.40;94.30;;;;;;5046082;28;20500;-77
2022/04/22 10:41:22;;;;;;;6.13;3.10;;;17.50;93.00;;;;;;5050983;28;20128;-77
2022/04/22 10:49:43;;;;;;;6.45;3.20;;;17.80;93.40;;;;;;5050499;28;20048;-77
2022/04/22 10:52:15;;;;;;;8.57;3.45;;;17.90;92.00;;;;;;5048373;28;20052;-77
2022/04/22 10:54:52;;;;;;;6.68;3.15;;;17.90;92.10;;;;;;5033603;28;20147;-77
2022/04/22 10:57:27;;;;;;;5.10;3.08;;;18.00;92.30;;;;;;5032608;28;20052;-77
2022/04/22 11:00:08;;;;;;;7.63;3.53;;;18.10;92.40;;;;;;5033257;28;20061;-77
2022/04/22 11:02:43;;;;;;;10.77;3.40;;;18.10;91.60;;;;;;5034129;28;20060;-77
2022/04/22 11:05:20;;;;;;;10.90;3.55;;;18.20;91.60;;;;;;5034428;28;20067;-77
2022/04/22 11:07:58;;;;;;;7.20;2.67;;;18.30;91.70;;;;;;5033696;28;20136;-77
2022/04/22 11:10:32;;;;;;;9.85;2.92;;;18.40;91.30;;;;;;5039699;28;20045;-77
2022/04/22 11:13:01;;;;;;;;;;;18.60;91.50;;;;;;5054353;28;20431;-77
2022/04/22 11:15:42;;;;;;;6.07;3.03;;;18.60;90.00;;;;;;5053756;28;20390;-77
2022/04/22 11:18:12;;;;;;;7.13;3.40;;;18.70;88.20;;;;;;5053844;28;20083;-77
2022/04/22 11:20:45;;;;;;;10.43;3.58;;;18.70;88.80;;;;;;5047598;28;20069;-77
2022/04/22 11:23:15;;;;;;;11.43;3.43;;;18.70;90.00;;;;;;5028126;28;20119;-77
2022/04/22 11:25:42;;;;;;;6.07;3.10;;;18.70;89.70;;;;;;5033481;28;20533;-77
2022/04/22 11:28:09;;;;;;;8.50;3.10;;;18.70;90.20;;;;;;5033026;28;20049;-77
2022/04/22 11:30:36;;;;;;;6.32;2.95;;;18.90;90.20;;;;;;5032364;28;20505;-77
2022/04/22 11:33:21;;;;;;;5.80;3.05;;;19.00;89.60;;;;;;5054418;28;20086;-77
2022/04/22 11:35:49;;;;;;;10.48;3.40;;;19.20;87.90;;;;;;5039991;28;20037;-77
2022/04/22 11:38:16;;;;;;;6.05;3.28;;;19.10;87.20;;;;;;5034207;28;20073;-77
2022/04/22 11:40:44;;;;;;;9.50;3.10;;;19.20;87.30;;;;;;5052733;28;20049;-77
2022/04/22 11:43:11;;;;;;;9.88;3.78;;;19.30;87.80;;;;;;5052100;28;20123;-77
2022/04/22 11:45:48;;;;;;;7.43;3.17;;;19.40;86.80;;;;;;5053114;28;20527;-77
2022/04/22 11:48:18;;;;;;;7.80;3.35;;;19.40;84.20;;;;;;5033268;28;20056;-77
2022/04/22 11:50:46;;;;;;;5.32;2.80;;;19.40;83.40;;;;;;5031808;28;20057;-77
2022/04/22 11:53:24;;;;;;;11.98;4.20;;;19.50;84.90;;;;;;5033825;28;20122;-77
2022/04/22 11:55:50;;;;;;;8.57;3.42;;;19.60;84.60;;;;;;5032274;28;20049;-76
2022/04/22 11:58:20;;;;;;;12.57;3.95;;;19.70;85.20;;;;;;5032052;28;20045;-76
2022/04/22 12:06:17;;;;;;;7.72;3.83;;;19.90;82.30;;;;;;5032790;28;20089;-76
2022/04/22 12:08:56;;;;;;;7.13;3.90;;;20.00;83.40;;;;;;5032879;28;20053;-76
2022/04/22 12:11:26;;;;;;;7.10;3.92;;;19.90;82.30;;;;;;5048235;28;20053;-76
2022/04/22 12:13:52;;;;;;;8.68;4.00;;;20.00;83.00;;;;;;5051489;28;20335;-76
2022/04/22 12:16:28;;;;;;;7.18;3.83;;;20.00;84.10;;;;;;5051061;28;20485;-76
2022/04/22 12:18:55;;;;;;;12.25;4.20;;;20.10;84.10;;;;;;5033188;28;20052;-76
2022/04/22 12:21:22;;;;;;;8.52;3.92;;;20.20;81.90;;;;;;5049205;28;20053;-76
2022/04/22 12:23:49;;;;;;;8.30;3.95;;;20.20;82.70;;;;;;5047033;28;20392;-76
2022/04/22 12:26:20;;;;;;;6.85;3.60;;;20.30;81.80;;;;;;5051571;28;20123;-76
2022/04/22 12:28:58;;;;;;;9.15;4.40;;;20.40;82.00;;;;;;5052098;28;20083;-76
2022/04/22 12:31:25;;;;;;;9.30;4.22;;;20.40;81.70;;;;;;5056464;28;20048;-76
2022/04/22 12:34:15;;;;;;;10.25;3.90;;;20.50;81.60;;;;;;5072672;28;20048;-76
2022/04/22 12:36:52;;;;;;;8.73;4.18;;;20.50;80.50;;;;;;5071706;28;20045;-77
2022/04/22 12:39:38;;;;;;;11.73;3.92;;;20.60;81.20;;;;;;5061516;28;20423;-77
2022/04/22 12:42:28;;;;;;;10.25;4.10;;;20.70;80.20;;;;;;5035279;28;20053;-77
2022/04/22 12:54:04;;;;;;;7.53;4.85;;;21.10;77.20;;;;;;5030853;28;20057;-77
2022/04/22 12:56:30;;;;;;;8.13;4.38;;;21.10;78.30;;;;;;5030765;28;20128;-77
2022/04/22 12:58:58;;;;;;;10.15;4.43;;;21.20;78.60;;;;;;5035065;28;20039;-77
2022/04/22 13:01:30;;;;;;;10.43;4.15;;;21.20;79.00;;;;;;5050715;28;20076;-77
2022/04/22 13:03:57;;;;;;;13.85;5.10;;;21.20;78.20;;;;;;5051700;28;20099;-77
2022/04/22 13:06:40;;;;;;;10.30;4.38;;;21.20;78.40;;;;;;5050810;28;20076;-77
2022/04/22 13:09:07;;;;;;;9.70;4.13;;;21.20;77.40;;;;;;5052305;28;20053;-77
2022/04/22 13:11:33;;;;;;;9.50;4.60;;;21.10;78.20;;;;;;5051167;28;20411;-77
2022/04/22 13:14:00;;;;;;;9.85;5.50;;;21.20;78.80;;;;;;5040567;28;20374;-77
2022/04/22 13:16:26;;;;;;;9.88;5.45;;;21.20;78.30;;;;;;5032251;28;20107;-77
2022/04/22 13:18:52;;;;;;;7.78;4.53;;;21.10;79.00;;;;;;5031342;28;20049;-77
2022/04/22 13:21:17;;;;;;;10.40;5.00;;;21.00;79.00;;;;;;5047890;28;20044;-77
2022/04/22 13:23:43;;;;;;;9.43;5.13;;;21.10;79.00;;;;;;5046581;28;20049;-77
2022/04/22 13:26:08;;;;;;;10.00;4.80;;;21.30;80.20;;;;;;5051626;28;20076;-77
2022/04/22 13:28:34;;;;;;;8.75;4.93;;;21.50;77.60;;;;;;5034242;28;20084;-77
2022/04/22 13:31:00;;;;;;;10.35;5.45;;;21.50;78.00;;;;;;5037202;28;20099;-77
2022/04/22 13:33:26;;;;;;;8.90;4.82;;;21.50;78.00;;;;;;5070809;28;20463;-77
2022/04/22 13:35:52;;;;;;;6.97;5.10;;;21.30;78.40;;;;;;5059409;28;20053;-77
2022/04/22 13:38:18;;;;;;;9.48;5.22;;;21.20;78.50;;;;;;5050282;28;20047;-77
2022/04/22 13:40:43;;;;;;;12.13;5.13;;;21.10;77.90;;;;;;5050673;28;20468;-77
2022/04/22 13:43:09;;;;;;;11.35;5.25;;;21.00;77.20;;;;;;5038757;28;20041;-77
2022/04/22 13:53:47;;;;;;;8.07;5.05;;;20.50;78.70;;;;;;5050753;28;20048;-77
2022/04/22 13:56:13;;;;;;;11.13;4.95;;;20.50;79.00;;;;;;5039352;28;20041;-77
2022/04/22 13:58:39;;;;;;;10.05;5.03;;;20.50;79.50;;;;;;5043721;28;20080;-77
2022/04/22 14:01:05;;;;;;;7.95;5.05;;;20.40;80.90;;;;;;5050547;28;20061;-77
2022/04/22 14:03:31;;;;;;;7.18;5.28;;;20.30;80.10;;;;;;5049911;28;20056;-77